sensor_id;sensor_type;location;lat;lon;timestamp;P1;durP1;ratioP1;P2;durP2;ratioP2
430;SDS011;202;48.764;9.172;2022-08-19T00:01:56;12.73;;;11.70;;
430;SDS011;202;48.764;9.172;2022-08-19T00:04:29;14.00;;;13.30;;
430;SDS011;202;48.764;9.172;2022-08-19T00:07:03;14.30;;;13.07;;
430;SDS011;202;48.764;9.172;2022-08-19T00:09:37;13.23;;;12.07;;
430;SDS011;202;48.764;9.172;2022-08-19T00:12:06;12.63;;;11.97;;
430;SDS011;202;48.764;9.172;2022-08-19T00:14:41;13.57;;;12.87;;
430;SDS011;202;48.764;9.172;2022-08-19T00:17:11;13.50;;;12.80;;
430;SDS011;202;48.764;9.172;2022-08-19T00:19:48;15.57;;;12.47;;
430;SDS011;202;48.764;9.172;2022-08-19T00:22:15;12.23;;;11.67;;
430;SDS011;202;48.764;9.172;2022-08-19T00:24:44;14.37;;;13.67;;
430;SDS011;202;48.764;9.172;2022-08-19T00:27:14;14.50;;;13.80;;
430;SDS011;202;48.764;9.172;2022-08-19T00:29:44;13.60;;;12.60;;
430;SDS011;202;48.764;9.172;2022-08-19T00:32:17;14.13;;;13.17;;
430;SDS011;202;48.764;9.172;2022-08-19T00:34:48;15.37;;;13.27;;
430;SDS011;202;48.764;9.172;2022-08-19T00:37:23;14.13;;;12.93;;
430;SDS011;202;48.764;9.172;2022-08-19T00:39:57;13.70;;;11.57;;
430;SDS011;202;48.764;9.172;2022-08-19T00:42:27;14.70;;;13.70;;
430;SDS011;202;48.764;9.172;2022-08-19T00:44:59;13.40;;;12.70;;
430;SDS011;202;48.764;9.172;2022-08-19T00:47:40;14.43;;;13.03;;
430;SDS011;202;48.764;9.172;2022-08-19T00:50:09;14.23;;;13.53;;
430;SDS011;202;48.764;9.172;2022-08-19T00:52:43;14.43;;;13.70;;
430;SDS011;202;48.764;9.172;2022-08-19T00:55:26;13.33;;;12.63;;
430;SDS011;202;48.764;9.172;2022-08-19T00:57:55;12.37;;;11.87;;
430;SDS011;202;48.764;9.172;2022-08-19T01:00:25;13.27;;;12.57;;
430;SDS011;202;48.764;9.172;2022-08-19T01:02:53;13.60;;;12.90;;
430;SDS011;202;48.764;9.172;2022-08-19T01:05:30;15.50;;;14.50;;
430;SDS011;202;48.764;9.172;2022-08-19T01:08:09;13.23;;;12.53;;
430;SDS011;202;48.764;9.172;2022-08-19T01:10:50;13.50;;;12.20;;
430;SDS011;202;48.764;9.172;2022-08-19T01:13:25;13.30;;;12.60;;
430;SDS011;202;48.764;9.172;2022-08-19T01:16:05;15.50;;;13.07;;
430;SDS011;202;48.764;9.172;2022-08-19T01:18:40;13.13;;;12.43;;
430;SDS011;202;48.764;9.172;2022-08-19T01:21:19;13.70;;;12.43;;
430;SDS011;202;48.764;9.172;2022-08-19T01:24:10;17.10;;;14.47;;
430;SDS011;202;48.764;9.172;2022-08-19T01:26:39;14.40;;;13.20;;
430;SDS011;202;48.764;9.172;2022-08-19T01:29:11;13.90;;;13.20;;
430;SDS011;202;48.764;9.172;2022-08-19T01:31:39;14.63;;;13.90;;
430;SDS011;202;48.764;9.172;2022-08-19T01:34:10;14.30;;;13.63;;
430;SDS011;202;48.764;9.172;2022-08-19T01:36:42;13.07;;;12.37;;
430;SDS011;202;48.764;9.172;2022-08-19T01:39:17;14.40;;;13.70;;
430;SDS011;202;48.764;9.172;2022-08-19T01:41:50;14.03;;;13.37;;
430;SDS011;202;48.764;9.172;2022-08-19T01:44:21;23.40;;;13.77;;
430;SDS011;202;48.764;9.172;2022-08-19T01:46:50;15.63;;;13.67;;
430;SDS011;202;48.764;9.172;2022-08-19T01:49:22;14.80;;;13.43;;
430;SDS011;202;48.764;9.172;2022-08-19T01:51:53;15.20;;;13.90;;
430;SDS011;202;48.764;9.172;2022-08-19T01:54:24;16.40;;;15.27;;
430;SDS011;202;48.764;9.172;2022-08-19T01:56:55;15.47;;;14.67;;
430;SDS011;202;48.764;9.172;2022-08-19T01:59:30;17.43;;;14.43;;
430;SDS011;202;48.764;9.172;2022-08-19T02:01:59;16.70;;;14.47;;
430;SDS011;202;48.764;9.172;2022-08-19T02:04:35;16.17;;;14.50;;
430;SDS011;202;48.764;9.172;2022-08-19T02:07:07;17.90;;;15.50;;
430;SDS011;202;48.764;9.172;2022-08-19T02:09:46;17.00;;;14.53;;
430;SDS011;202;48.764;9.172;2022-08-19T02:12:20;16.20;;;14.77;;
430;SDS011;202;48.764;9.172;2022-08-19T02:14:54;16.33;;;15.53;;
430;SDS011;202;48.764;9.172;2022-08-19T02:17:25;15.80;;;14.87;;
430;SDS011;202;48.764;9.172;2022-08-19T02:19:56;18.13;;;14.80;;
430;SDS011;202;48.764;9.172;2022-08-19T02:22:24;17.30;;;16.43;;
430;SDS011;202;48.764;9.172;2022-08-19T02:24:56;17.17;;;15.50;;
430;SDS011;202;48.764;9.172;2022-08-19T02:27:25;16.00;;;15.00;;
430;SDS011;202;48.764;9.172;2022-08-19T02:29:58;15.80;;;15.00;;
430;SDS011;202;48.764;9.172;2022-08-19T02:32:25;17.03;;;16.13;;
430;SDS011;202;48.764;9.172;2022-08-19T02:34:58;18.07;;;15.60;;
430;SDS011;202;48.764;9.172;2022-08-19T02:37:42;19.60;;;15.93;;
430;SDS011;202;48.764;9.172;2022-08-19T02:40:34;19.03;;;15.70;;
430;SDS011;202;48.764;9.172;2022-08-19T02:43:11;17.03;;;16.17;;
430;SDS011;202;48.764;9.172;2022-08-19T02:45:45;15.33;;;14.40;;
430;SDS011;202;48.764;9.172;2022-08-19T02:48:16;17.40;;;15.53;;
430;SDS011;202;48.764;9.172;2022-08-19T02:50:57;16.70;;;14.87;;
430;SDS011;202;48.764;9.172;2022-08-19T02:53:27;18.60;;;16.10;;
430;SDS011;202;48.764;9.172;2022-08-19T02:56:01;18.17;;;15.30;;
430;SDS011;202;48.764;9.172;2022-08-19T02:58:32;17.53;;;16.20;;
430;SDS011;202;48.764;9.172;2022-08-19T03:01:05;19.70;;;17.50;;
430;SDS011;202;48.764;9.172;2022-08-19T03:03:32;17.67;;;16.80;;
430;SDS011;202;48.764;9.172;2022-08-19T03:06:06;17.40;;;15.60;;
430;SDS011;202;48.764;9.172;2022-08-19T03:08:42;18.20;;;15.33;;
430;SDS011;202;48.764;9.172;2022-08-19T03:11:20;18.47;;;17.57;;
430;SDS011;202;48.764;9.172;2022-08-19T03:13:49;19.33;;;17.00;;
430;SDS011;202;48.764;9.172;2022-08-19T03:16:23;20.10;;;18.23;;
430;SDS011;202;48.764;9.172;2022-08-19T03:18:55;17.20;;;16.30;;
430;SDS011;202;48.764;9.172;2022-08-19T03:21:35;20.07;;;18.67;;
430;SDS011;202;48.764;9.172;2022-08-19T03:24:04;24.00;;;19.47;;
430;SDS011;202;48.764;9.172;2022-08-19T03:26:37;21.67;;;18.70;;
430;SDS011;202;48.764;9.172;2022-08-19T03:29:19;18.27;;;16.23;;
430;SDS011;202;48.764;9.172;2022-08-19T03:32:14;18.53;;;17.70;;
430;SDS011;202;48.764;9.172;2022-08-19T03:34:47;20.13;;;18.17;;
430;SDS011;202;48.764;9.172;2022-08-19T03:37:18;19.33;;;17.93;;
430;SDS011;202;48.764;9.172;2022-08-19T03:39:55;19.03;;;17.90;;
430;SDS011;202;48.764;9.172;2022-08-19T03:42:29;22.27;;;17.93;;
430;SDS011;202;48.764;9.172;2022-08-19T03:45:04;20.47;;;19.47;;
430;SDS011;202;48.764;9.172;2022-08-19T03:47:37;19.60;;;18.27;;
430;SDS011;202;48.764;9.172;2022-08-19T03:50:09;20.40;;;18.57;;
430;SDS011;202;48.764;9.172;2022-08-19T03:52:36;20.57;;;19.10;;
430;SDS011;202;48.764;9.172;2022-08-19T03:55:06;22.03;;;20.93;;
430;SDS011;202;48.764;9.172;2022-08-19T03:57:42;20.50;;;19.50;;
430;SDS011;202;48.764;9.172;2022-08-19T04:00:14;23.07;;;21.17;;
430;SDS011;202;48.764;9.172;2022-08-19T04:02:49;22.47;;;21.27;;
430;SDS011;202;48.764;9.172;2022-08-19T04:05:16;19.43;;;18.43;;
430;SDS011;202;48.764;9.172;2022-08-19T04:07:51;22.07;;;19.50;;
430;SDS011;202;48.764;9.172;2022-08-19T04:10:35;22.80;;;20.03;;
430;SDS011;202;48.764;9.172;2022-08-19T04:13:11;21.87;;;20.77;;
430;SDS011;202;48.764;9.172;2022-08-19T04:15:52;21.20;;;19.77;;
430;SDS011;202;48.764;9.172;2022-08-19T04:18:22;20.70;;;19.73;;
430;SDS011;202;48.764;9.172;2022-08-19T04:20:57;22.17;;;19.90;;
430;SDS011;202;48.764;9.172;2022-08-19T04:23:28;23.47;;;20.07;;
430;SDS011;202;48.764;9.172;2022-08-19T04:26:00;19.67;;;18.60;;
430;SDS011;202;48.764;9.172;2022-08-19T04:28:31;21.77;;;20.20;;
430;SDS011;202;48.764;9.172;2022-08-19T04:31:06;22.50;;;20.47;;
430;SDS011;202;48.764;9.172;2022-08-19T04:33:51;19.93;;;18.87;;
430;SDS011;202;48.764;9.172;2022-08-19T04:39:31;22.10;;;21.00;;
430;SDS011;202;48.764;9.172;2022-08-19T04:42:26;21.50;;;19.67;;
430;SDS011;202;48.764;9.172;2022-08-19T04:45:37;21.73;;;20.20;;
430;SDS011;202;48.764;9.172;2022-08-19T04:48:18;27.57;;;20.23;;
430;SDS011;202;48.764;9.172;2022-08-19T04:50:51;23.20;;;20.10;;
430;SDS011;202;48.764;9.172;2022-08-19T04:53:22;23.57;;;20.10;;
430;SDS011;202;48.764;9.172;2022-08-19T04:55:50;22.00;;;20.23;;
430;SDS011;202;48.764;9.172;2022-08-19T04:58:17;24.00;;;22.77;;
430;SDS011;202;48.764;9.172;2022-08-19T05:00:45;22.40;;;20.77;;
430;SDS011;202;48.764;9.172;2022-08-19T05:03:12;23.03;;;21.67;;
430;SDS011;202;48.764;9.172;2022-08-19T05:05:42;21.53;;;20.17;;
430;SDS011;202;48.764;9.172;2022-08-19T05:08:10;21.13;;;20.03;;
430;SDS011;202;48.764;9.172;2022-08-19T05:10:37;23.30;;;20.70;;
430;SDS011;202;48.764;9.172;2022-08-19T05:13:05;23.20;;;20.60;;
430;SDS011;202;48.764;9.172;2022-08-19T05:15:35;24.03;;;19.63;;
430;SDS011;202;48.764;9.172;2022-08-19T05:18:04;21.17;;;19.37;;
430;SDS011;202;48.764;9.172;2022-08-19T05:20:48;21.00;;;19.93;;
430;SDS011;202;48.764;9.172;2022-08-19T05:23:32;21.90;;;20.80;;
430;SDS011;202;48.764;9.172;2022-08-19T05:25:59;23.90;;;21.10;;
430;SDS011;202;48.764;9.172;2022-08-19T05:28:26;21.37;;;19.43;;
430;SDS011;202;48.764;9.172;2022-08-19T05:30:53;21.60;;;20.50;;
430;SDS011;202;48.764;9.172;2022-08-19T05:33:22;22.07;;;20.83;;
430;SDS011;202;48.764;9.172;2022-08-19T05:35:49;21.23;;;18.40;;
430;SDS011;202;48.764;9.172;2022-08-19T05:38:17;24.17;;;20.00;;
430;SDS011;202;48.764;9.172;2022-08-19T05:40:44;22.03;;;20.90;;
430;SDS011;202;48.764;9.172;2022-08-19T05:43:12;23.70;;;19.20;;
430;SDS011;202;48.764;9.172;2022-08-19T05:45:40;26.70;;;20.50;;
430;SDS011;202;48.764;9.172;2022-08-19T05:48:07;26.40;;;21.53;;
430;SDS011;202;48.764;9.172;2022-08-19T05:50:37;21.67;;;20.23;;
430;SDS011;202;48.764;9.172;2022-08-19T05:53:04;21.60;;;19.97;;
430;SDS011;202;48.764;9.172;2022-08-19T05:55:31;21.43;;;18.03;;
430;SDS011;202;48.764;9.172;2022-08-19T05:57:58;22.63;;;20.40;;
430;SDS011;202;48.764;9.172;2022-08-19T06:00:27;19.93;;;18.93;;
430;SDS011;202;48.764;9.172;2022-08-19T06:02:55;21.50;;;20.00;;
430;SDS011;202;48.764;9.172;2022-08-19T06:05:24;21.13;;;20.07;;
430;SDS011;202;48.764;9.172;2022-08-19T06:07:52;24.33;;;21.90;;
430;SDS011;202;48.764;9.172;2022-08-19T06:10:19;18.57;;;17.67;;
430;SDS011;202;48.764;9.172;2022-08-19T06:12:46;26.47;;;20.70;;
430;SDS011;202;48.764;9.172;2022-08-19T06:15:13;21.63;;;20.53;;
430;SDS011;202;48.764;9.172;2022-08-19T06:17:41;20.60;;;18.67;;
430;SDS011;202;48.764;9.172;2022-08-19T06:20:10;22.57;;;18.93;;
430;SDS011;202;48.764;9.172;2022-08-19T06:22:39;20.53;;;19.23;;
430;SDS011;202;48.764;9.172;2022-08-19T06:25:09;20.27;;;19.20;;
430;SDS011;202;48.764;9.172;2022-08-19T06:27:37;21.43;;;19.73;;
430;SDS011;202;48.764;9.172;2022-08-19T06:30:05;20.97;;;19.93;;
430;SDS011;202;48.764;9.172;2022-08-19T06:32:33;22.07;;;19.93;;
430;SDS011;202;48.764;9.172;2022-08-19T06:34:59;26.70;;;20.53;;
430;SDS011;202;48.764;9.172;2022-08-19T06:37:26;29.17;;;21.73;;
430;SDS011;202;48.764;9.172;2022-08-19T06:39:53;20.50;;;19.50;;
430;SDS011;202;48.764;9.172;2022-08-19T06:42:21;21.53;;;20.40;;
430;SDS011;202;48.764;9.172;2022-08-19T06:44:48;23.03;;;20.27;;
430;SDS011;202;48.764;9.172;2022-08-19T06:47:16;22.43;;;19.90;;
430;SDS011;202;48.764;9.172;2022-08-19T06:49:45;22.50;;;21.40;;
430;SDS011;202;48.764;9.172;2022-08-19T06:52:12;22.33;;;21.23;;
430;SDS011;202;48.764;9.172;2022-08-19T06:54:39;25.00;;;21.67;;
430;SDS011;202;48.764;9.172;2022-08-19T06:57:07;21.37;;;20.23;;
430;SDS011;202;48.764;9.172;2022-08-19T06:59:39;26.27;;;20.80;;
430;SDS011;202;48.764;9.172;2022-08-19T07:02:06;21.83;;;20.73;;
430;SDS011;202;48.764;9.172;2022-08-19T07:04:34;20.80;;;19.80;;
430;SDS011;202;48.764;9.172;2022-08-19T07:07:04;21.47;;;20.37;;
430;SDS011;202;48.764;9.172;2022-08-19T07:09:34;21.40;;;20.30;;
430;SDS011;202;48.764;9.172;2022-08-19T07:12:04;22.60;;;21.50;;
430;SDS011;202;48.764;9.172;2022-08-19T07:14:32;20.97;;;19.93;;
430;SDS011;202;48.764;9.172;2022-08-19T07:17:04;23.23;;;21.90;;
430;SDS011;202;48.764;9.172;2022-08-19T07:19:32;21.70;;;20.63;;
430;SDS011;202;48.764;9.172;2022-08-19T07:22:01;21.47;;;19.73;;
430;SDS011;202;48.764;9.172;2022-08-19T07:24:29;21.67;;;20.53;;
430;SDS011;202;48.764;9.172;2022-08-19T07:26:57;23.60;;;19.73;;
430;SDS011;202;48.764;9.172;2022-08-19T07:29:27;20.47;;;19.30;;
430;SDS011;202;48.764;9.172;2022-08-19T07:31:56;21.30;;;20.07;;
430;SDS011;202;48.764;9.172;2022-08-19T07:34:25;20.80;;;19.43;;
430;SDS011;202;48.764;9.172;2022-08-19T07:36:52;20.20;;;19.20;;
430;SDS011;202;48.764;9.172;2022-08-19T07:39:22;22.80;;;19.50;;
430;SDS011;202;48.764;9.172;2022-08-19T07:41:51;21.30;;;18.27;;
430;SDS011;202;48.764;9.172;2022-08-19T07:44:18;20.17;;;19.17;;
430;SDS011;202;48.764;9.172;2022-08-19T07:46:47;20.70;;;19.70;;
430;SDS011;202;48.764;9.172;2022-08-19T07:49:17;20.93;;;18.80;;
430;SDS011;202;48.764;9.172;2022-08-19T07:51:46;20.40;;;18.70;;
430;SDS011;202;48.764;9.172;2022-08-19T07:54:14;26.40;;;21.33;;
430;SDS011;202;48.764;9.172;2022-08-19T07:56:41;19.57;;;18.57;;
430;SDS011;202;48.764;9.172;2022-08-19T07:59:08;19.83;;;18.83;;
430;SDS011;202;48.764;9.172;2022-08-19T08:01:35;19.53;;;17.70;;
430;SDS011;202;48.764;9.172;2022-08-19T08:04:05;21.53;;;20.10;;
430;SDS011;202;48.764;9.172;2022-08-19T08:06:52;20.83;;;19.60;;
430;SDS011;202;48.764;9.172;2022-08-19T08:09:37;19.27;;;17.80;;
430;SDS011;202;48.764;9.172;2022-08-19T08:12:08;18.87;;;17.70;;
430;SDS011;202;48.764;9.172;2022-08-19T08:14:37;17.47;;;16.57;;
430;SDS011;202;48.764;9.172;2022-08-19T08:17:06;19.70;;;18.70;;
430;SDS011;202;48.764;9.172;2022-08-19T08:19:33;20.53;;;18.50;;
430;SDS011;202;48.764;9.172;2022-08-19T08:22:02;17.63;;;16.70;;
430;SDS011;202;48.764;9.172;2022-08-19T08:24:30;18.00;;;16.90;;
430;SDS011;202;48.764;9.172;2022-08-19T08:26:59;19.10;;;18.00;;
430;SDS011;202;48.764;9.172;2022-08-19T08:29:30;18.87;;;17.83;;
430;SDS011;202;48.764;9.172;2022-08-19T08:31:58;17.80;;;16.90;;
430;SDS011;202;48.764;9.172;2022-08-19T08:34:25;17.67;;;16.77;;
430;SDS011;202;48.764;9.172;2022-08-19T08:36:51;21.77;;;18.13;;
430;SDS011;202;48.764;9.172;2022-08-19T08:39:20;19.43;;;18.43;;
430;SDS011;202;48.764;9.172;2022-08-19T08:41:50;18.50;;;17.60;;
430;SDS011;202;48.764;9.172;2022-08-19T08:44:23;17.60;;;16.70;;
430;SDS011;202;48.764;9.172;2022-08-19T08:46:55;17.30;;;16.40;;
430;SDS011;202;48.764;9.172;2022-08-19T08:49:28;17.10;;;16.23;;
430;SDS011;202;48.764;9.172;2022-08-19T08:52:02;20.13;;;18.37;;
430;SDS011;202;48.764;9.172;2022-08-19T08:54:34;17.80;;;16.90;;
430;SDS011;202;48.764;9.172;2022-08-19T08:57:04;18.70;;;17.80;;
430;SDS011;202;48.764;9.172;2022-08-19T08:59:40;18.33;;;17.43;;
430;SDS011;202;48.764;9.172;2022-08-19T09:02:09;19.97;;;17.97;;
430;SDS011;202;48.764;9.172;2022-08-19T09:04:36;19.50;;;18.50;;
430;SDS011;202;48.764;9.172;2022-08-19T09:07:10;18.17;;;17.27;;
430;SDS011;202;48.764;9.172;2022-08-19T09:09:50;19.33;;;18.33;;
430;SDS011;202;48.764;9.172;2022-08-19T09:12:23;20.50;;;18.90;;
430;SDS011;202;48.764;9.172;2022-08-19T09:15:00;19.57;;;18.00;;
430;SDS011;202;48.764;9.172;2022-08-19T09:17:31;21.17;;;18.07;;
430;SDS011;202;48.764;9.172;2022-08-19T09:20:03;20.00;;;19.00;;
430;SDS011;202;48.764;9.172;2022-08-19T09:22:32;20.50;;;18.97;;
430;SDS011;202;48.764;9.172;2022-08-19T09:25:00;16.47;;;15.70;;
430;SDS011;202;48.764;9.172;2022-08-19T09:27:28;17.20;;;16.30;;
430;SDS011;202;48.764;9.172;2022-08-19T09:29:55;22.27;;;17.80;;
430;SDS011;202;48.764;9.172;2022-08-19T09:32:22;19.80;;;17.17;;
430;SDS011;202;48.764;9.172;2022-08-19T09:34:51;19.83;;;17.03;;
430;SDS011;202;48.764;9.172;2022-08-19T09:37:19;20.40;;;17.70;;
430;SDS011;202;48.764;9.172;2022-08-19T09:39:46;18.00;;;16.40;;
430;SDS011;202;48.764;9.172;2022-08-19T09:42:14;17.77;;;16.87;;
430;SDS011;202;48.764;9.172;2022-08-19T09:44:41;17.17;;;15.30;;
430;SDS011;202;48.764;9.172;2022-08-19T09:47:09;17.27;;;16.37;;
430;SDS011;202;48.764;9.172;2022-08-19T09:49:38;15.67;;;14.87;;
430;SDS011;202;48.764;9.172;2022-08-19T09:52:05;15.93;;;15.10;;
430;SDS011;202;48.764;9.172;2022-08-19T09:54:34;15.50;;;14.70;;
430;SDS011;202;48.764;9.172;2022-08-19T09:57:01;16.70;;;14.37;;
430;SDS011;202;48.764;9.172;2022-08-19T09:59:29;18.70;;;14.27;;
430;SDS011;202;48.764;9.172;2022-08-19T10:01:57;15.67;;;14.87;;
430;SDS011;202;48.764;9.172;2022-08-19T10:04:24;14.10;;;13.40;;
430;SDS011;202;48.764;9.172;2022-08-19T10:07:13;13.80;;;13.10;;
430;SDS011;202;48.764;9.172;2022-08-19T10:09:40;14.90;;;13.83;;
430;SDS011;202;48.764;9.172;2022-08-19T10:12:08;15.50;;;13.93;;
430;SDS011;202;48.764;9.172;2022-08-19T10:14:36;13.50;;;12.70;;
430;SDS011;202;48.764;9.172;2022-08-19T10:17:03;14.37;;;13.67;;
430;SDS011;202;48.764;9.172;2022-08-19T10:19:30;14.73;;;12.93;;
430;SDS011;202;48.764;9.172;2022-08-19T10:22:02;17.43;;;15.07;;
430;SDS011;202;48.764;9.172;2022-08-19T10:24:29;13.87;;;13.20;;
430;SDS011;202;48.764;9.172;2022-08-19T10:26:57;13.47;;;12.77;;
430;SDS011;202;48.764;9.172;2022-08-19T10:29:25;14.23;;;13.53;;
430;SDS011;202;48.764;9.172;2022-08-19T10:31:55;14.87;;;13.70;;
430;SDS011;202;48.764;9.172;2022-08-19T10:34:22;13.90;;;13.20;;
430;SDS011;202;48.764;9.172;2022-08-19T10:36:50;14.03;;;13.37;;
430;SDS011;202;48.764;9.172;2022-08-19T10:39:17;16.90;;;14.67;;
430;SDS011;202;48.764;9.172;2022-08-19T10:41:44;13.30;;;12.60;;
430;SDS011;202;48.764;9.172;2022-08-19T10:44:11;12.57;;;11.40;;
430;SDS011;202;48.764;9.172;2022-08-19T10:49:24;13.30;;;12.57;;
430;SDS011;202;48.764;9.172;2022-08-19T10:51:59;13.17;;;12.53;;
430;SDS011;202;48.764;9.172;2022-08-19T10:54:49;11.33;;;10.73;;
430;SDS011;202;48.764;9.172;2022-08-19T10:57:36;10.60;;;9.97;;
430;SDS011;202;48.764;9.172;2022-08-19T11:00:22;14.00;;;12.70;;
430;SDS011;202;48.764;9.172;2022-08-19T11:02:55;10.63;;;10.03;;
430;SDS011;202;48.764;9.172;2022-08-19T11:05:27;13.50;;;10.80;;
430;SDS011;202;48.764;9.172;2022-08-19T11:07:59;14.40;;;13.70;;
430;SDS011;202;48.764;9.172;2022-08-19T11:10:39;11.63;;;10.20;;
430;SDS011;202;48.764;9.172;2022-08-19T11:13:34;10.83;;;10.23;;
430;SDS011;202;48.764;9.172;2022-08-19T11:16:09;13.73;;;11.17;;
430;SDS011;202;48.764;9.172;2022-08-19T11:18:48;12.40;;;11.10;;
430;SDS011;202;48.764;9.172;2022-08-19T11:21:39;13.10;;;11.00;;
430;SDS011;202;48.764;9.172;2022-08-19T11:24:27;11.57;;;10.90;;
430;SDS011;202;48.764;9.172;2022-08-19T11:27:03;11.33;;;10.73;;
430;SDS011;202;48.764;9.172;2022-08-19T11:29:42;11.23;;;10.63;;
430;SDS011;202;48.764;9.172;2022-08-19T11:32:39;11.47;;;10.87;;
430;SDS011;202;48.764;9.172;2022-08-19T11:35:31;11.37;;;10.80;;
430;SDS011;202;48.764;9.172;2022-08-19T11:45:02;9.90;;;9.40;;
430;SDS011;202;48.764;9.172;2022-08-19T11:48:10;10.50;;;9.07;;
430;SDS011;202;48.764;9.172;2022-08-19T11:51:29;9.20;;;8.70;;
430;SDS011;202;48.764;9.172;2022-08-19T11:57:59;10.30;;;9.70;;
430;SDS011;202;48.764;9.172;2022-08-19T12:00:59;10.27;;;9.20;;
430;SDS011;202;48.764;9.172;2022-08-19T12:04:22;10.20;;;9.37;;
430;SDS011;202;48.764;9.172;2022-08-19T12:07:16;9.13;;;8.63;;
430;SDS011;202;48.764;9.172;2022-08-19T12:10:16;9.20;;;8.80;;
430;SDS011;202;48.764;9.172;2022-08-19T12:16:43;8.97;;;8.40;;
430;SDS011;202;48.764;9.172;2022-08-19T12:25:57;10.17;;;9.67;;
430;SDS011;202;48.764;9.172;2022-08-19T12:40:29;9.07;;;8.57;;
430;SDS011;202;48.764;9.172;2022-08-19T12:52:55;12.30;;;11.53;;
430;SDS011;202;48.764;9.172;2022-08-19T12:55:35;13.77;;;12.10;;
430;SDS011;202;48.764;9.172;2022-08-19T12:58:31;11.60;;;11.00;;
430;SDS011;202;48.764;9.172;2022-08-19T13:01:52;12.70;;;11.43;;
430;SDS011;202;48.764;9.172;2022-08-19T13:05:03;11.80;;;11.20;;
430;SDS011;202;48.764;9.172;2022-08-19T13:07:56;12.20;;;11.60;;
430;SDS011;202;48.764;9.172;2022-08-19T13:10:39;12.40;;;11.80;;
430;SDS011;202;48.764;9.172;2022-08-19T13:13:12;12.53;;;11.90;;
430;SDS011;202;48.764;9.172;2022-08-19T13:16:00;11.50;;;10.90;;
430;SDS011;202;48.764;9.172;2022-08-19T13:18:48;13.37;;;11.43;;
430;SDS011;202;48.764;9.172;2022-08-19T13:21:35;13.40;;;12.30;;
430;SDS011;202;48.764;9.172;2022-08-19T13:27:13;14.97;;;14.17;;
430;SDS011;202;48.764;9.172;2022-08-19T13:29:52;16.87;;;16.00;;
430;SDS011;202;48.764;9.172;2022-08-19T13:32:43;17.73;;;15.93;;
430;SDS011;202;48.764;9.172;2022-08-19T13:35:35;17.00;;;15.40;;
430;SDS011;202;48.764;9.172;2022-08-19T13:38:19;19.17;;;18.17;;
430;SDS011;202;48.764;9.172;2022-08-19T13:41:03;19.73;;;18.20;;
430;SDS011;202;48.764;9.172;2022-08-19T13:43:40;23.53;;;22.07;;
430;SDS011;202;48.764;9.172;2022-08-19T13:46:21;24.37;;;21.33;;
430;SDS011;202;48.764;9.172;2022-08-19T13:48:57;22.13;;;20.47;;
430;SDS011;202;48.764;9.172;2022-08-19T13:51:24;23.57;;;22.37;;
430;SDS011;202;48.764;9.172;2022-08-19T13:53:59;23.20;;;21.87;;
430;SDS011;202;48.764;9.172;2022-08-19T13:59:10;21.97;;;20.70;;
430;SDS011;202;48.764;9.172;2022-08-19T14:01:45;24.63;;;21.70;;
430;SDS011;202;48.764;9.172;2022-08-19T14:04:18;21.70;;;20.43;;
430;SDS011;202;48.764;9.172;2022-08-19T14:06:47;22.13;;;21.03;;
430;SDS011;202;48.764;9.172;2022-08-19T14:09:21;23.90;;;21.90;;
430;SDS011;202;48.764;9.172;2022-08-19T14:11:59;26.40;;;24.47;;
430;SDS011;202;48.764;9.172;2022-08-19T14:14:30;22.93;;;21.07;;
430;SDS011;202;48.764;9.172;2022-08-19T14:17:05;24.97;;;23.77;;
430;SDS011;202;48.764;9.172;2022-08-19T14:19:37;22.50;;;21.40;;
430;SDS011;202;48.764;9.172;2022-08-19T14:22:09;26.13;;;22.73;;
430;SDS011;202;48.764;9.172;2022-08-19T14:24:45;27.60;;;23.70;;
430;SDS011;202;48.764;9.172;2022-08-19T14:27:41;23.17;;;22.00;;
430;SDS011;202;48.764;9.172;2022-08-19T14:30:23;25.27;;;21.40;;
430;SDS011;202;48.764;9.172;2022-08-19T14:32:58;23.50;;;22.30;;
430;SDS011;202;48.764;9.172;2022-08-19T14:35:27;21.90;;;20.57;;
430;SDS011;202;48.764;9.172;2022-08-19T14:38:14;19.20;;;18.20;;
430;SDS011;202;48.764;9.172;2022-08-19T14:41:06;19.77;;;18.80;;
430;SDS011;202;48.764;9.172;2022-08-19T14:44:00;20.77;;;19.77;;
430;SDS011;202;48.764;9.172;2022-08-19T14:46:39;21.97;;;20.57;;
430;SDS011;202;48.764;9.172;2022-08-19T14:49:10;20.63;;;19.43;;
430;SDS011;202;48.764;9.172;2022-08-19T14:51:37;21.60;;;20.50;;
430;SDS011;202;48.764;9.172;2022-08-19T14:54:05;25.20;;;20.03;;
430;SDS011;202;48.764;9.172;2022-08-19T14:56:41;21.03;;;19.97;;
430;SDS011;202;48.764;9.172;2022-08-19T14:59:08;20.27;;;19.27;;
430;SDS011;202;48.764;9.172;2022-08-19T15:01:43;20.23;;;17.07;;
430;SDS011;202;48.764;9.172;2022-08-19T15:04:17;18.17;;;17.27;;
430;SDS011;202;48.764;9.172;2022-08-19T15:06:47;19.03;;;17.87;;
430;SDS011;202;48.764;9.172;2022-08-19T15:09:20;17.83;;;16.93;;
430;SDS011;202;48.764;9.172;2022-08-19T15:11:48;18.60;;;17.70;;
430;SDS011;202;48.764;9.172;2022-08-19T15:14:26;18.53;;;17.63;;
430;SDS011;202;48.764;9.172;2022-08-19T15:17:02;18.73;;;16.60;;
430;SDS011;202;48.764;9.172;2022-08-19T15:19:37;17.40;;;16.50;;
430;SDS011;202;48.764;9.172;2022-08-19T15:22:08;16.40;;;15.60;;
430;SDS011;202;48.764;9.172;2022-08-19T15:24:36;17.70;;;15.83;;
430;SDS011;202;48.764;9.172;2022-08-19T15:27:06;17.53;;;16.63;;
430;SDS011;202;48.764;9.172;2022-08-19T15:29:34;16.93;;;14.47;;
430;SDS011;202;48.764;9.172;2022-08-19T15:32:10;14.17;;;13.33;;
430;SDS011;202;48.764;9.172;2022-08-19T15:34:38;15.43;;;14.30;;
430;SDS011;202;48.764;9.172;2022-08-19T15:37:14;13.50;;;12.80;;
430;SDS011;202;48.764;9.172;2022-08-19T15:39:54;16.70;;;13.90;;
430;SDS011;202;48.764;9.172;2022-08-19T15:42:36;13.90;;;13.20;;
430;SDS011;202;48.764;9.172;2022-08-19T15:45:13;15.50;;;14.70;;
430;SDS011;202;48.764;9.172;2022-08-19T15:48:06;14.00;;;13.10;;
430;SDS011;202;48.764;9.172;2022-08-19T15:50:38;16.97;;;16.07;;
430;SDS011;202;48.764;9.172;2022-08-19T15:53:27;17.63;;;16.73;;
430;SDS011;202;48.764;9.172;2022-08-19T15:56:00;19.37;;;18.37;;
430;SDS011;202;48.764;9.172;2022-08-19T15:58:32;16.50;;;15.70;;
430;SDS011;202;48.764;9.172;2022-08-19T16:01:26;16.33;;;15.53;;
430;SDS011;202;48.764;9.172;2022-08-19T16:04:37;16.37;;;15.57;;
430;SDS011;202;48.764;9.172;2022-08-19T16:07:44;16.63;;;15.80;;
430;SDS011;202;48.764;9.172;2022-08-19T16:10:49;14.97;;;14.17;;
430;SDS011;202;48.764;9.172;2022-08-19T16:23:38;14.77;;;14.00;;
430;SDS011;202;48.764;9.172;2022-08-19T16:26:25;14.03;;;13.33;;
430;SDS011;202;48.764;9.172;2022-08-19T16:28:53;14.40;;;13.70;;
430;SDS011;202;48.764;9.172;2022-08-19T16:31:25;15.50;;;14.70;;
430;SDS011;202;48.764;9.172;2022-08-19T16:34:13;14.63;;;13.90;;
430;SDS011;202;48.764;9.172;2022-08-19T16:37:07;13.13;;;12.43;;
430;SDS011;202;48.764;9.172;2022-08-19T16:46:19;15.13;;;14.33;;
430;SDS011;202;48.764;9.172;2022-08-19T16:49:11;15.30;;;13.90;;
430;SDS011;202;48.764;9.172;2022-08-19T16:55:47;15.97;;;15.17;;
430;SDS011;202;48.764;9.172;2022-08-19T16:58:45;16.53;;;15.57;;
430;SDS011;202;48.764;9.172;2022-08-19T17:05:13;16.17;;;15.37;;
430;SDS011;202;48.764;9.172;2022-08-19T17:08:11;16.63;;;15.83;;
430;SDS011;202;48.764;9.172;2022-08-19T17:11:17;16.77;;;15.93;;
430;SDS011;202;48.764;9.172;2022-08-19T17:23:46;17.93;;;17.03;;
430;SDS011;202;48.764;9.172;2022-08-19T17:26:58;20.60;;;19.60;;
430;SDS011;202;48.764;9.172;2022-08-19T17:29:44;19.43;;;18.00;;
430;SDS011;202;48.764;9.172;2022-08-19T17:32:35;20.20;;;19.20;;